Time;durP1;ratioP1;P1;durP2;ratioP2;P2;SDS_P1;SDS_P2;PMS_P1;PMS_P2;Temp;Humidity;BMP_temperature;BMP_pressure;BME280_temperature;BME280_humidity;BME280_pressure;Samples;Min_cycle;Max_cycle;Signal;HPM_P1;HPM_P2
2022/01/24 00:00:36;;;;;;;58.17;36.88;;;;;;;4.26;100.00;103445.56;5320845;28;20376;-82
2022/01/24 00:03:07;;;;;;;57.53;35.95;;;;;;;4.30;100.00;103443.72;5321891;28;20040;-83
2022/01/24 00:05:40;;;;;;;57.70;37.33;;;;;;;4.27;100.00;103443.78;5322999;27;20040;-83
2022/01/24 00:08:11;;;;;;;54.55;37.85;;;;;;;4.26;100.00;103447.31;5321994;28;20039;-83
2022/01/24 00:10:46;;;;;;;50.00;33.55;;;;;;;4.27;100.00;103441.16;5321911;28;20345;-83
2022/01/24 00:14:10;;;;;;;55.42;35.78;;;;;;;4.25;100.00;103433.25;5322426;27;20032;-82
2022/01/24 00:16:24;;;;;;;54.45;33.78;;;;;;;4.26;100.00;103437.66;5322325;28;20107;-83
2022/01/24 00:27:06;;;;;;;36.10;26.33;;;;;;;4.24;100.00;103435.94;5321132;28;20031;-82
2022/01/24 00:29:38;;;;;;;42.42;27.38;;;;;;;4.19;100.00;103436.06;5324490;27;20114;-83
2022/01/24 00:32:09;;;;;;;35.78;26.05;;;;;;;4.18;100.00;103425.53;5322789;27;20027;-83
2022/01/24 00:34:40;;;;;;;34.15;23.55;;;;;;;4.16;100.00;103426.41;5317606;28;20111;-83
2022/01/24 00:37:12;;;;;;;34.67;24.73;;;;;;;4.16;100.00;103429.06;5322784;27;20502;-83
2022/01/24 00:39:43;;;;;;;35.75;24.63;;;;;;;4.12;100.00;103422.13;5319491;28;20032;-83
2022/01/24 00:42:52;;;;;;;40.45;27.52;;;;;;;4.12;100.00;103418.59;5323133;27;20040;-83
2022/01/24 00:45:35;;;;;;;40.17;27.25;;;;;;;4.11;100.00;103417.75;5322031;28;20032;-82
2022/01/24 00:48:28;;;;;;;40.00;28.08;;;;;;;4.06;100.00;103410.84;5320997;28;20074;-83
2022/01/24 00:54:00;;;;;;;44.92;29.65;;;;;;;4.05;100.00;103417.91;5325826;28;20399;-83
2022/01/24 00:56:32;;;;;;;45.75;27.48;;;;;;;4.09;100.00;103429.25;5323997;28;20540;-83
2022/01/24 00:59:03;;;;;;;39.15;27.33;;;;;;;4.02;100.00;103422.41;5326737;27;20079;-83
2022/01/24 01:01:34;;;;;;;43.45;28.30;;;;;;;4.10;100.00;103434.50;5323463;27;20051;-83
2022/01/24 01:04:05;;;;;;;39.70;27.42;;;;;;;4.05;100.00;103415.25;5323501;28;20108;-83
2022/01/24 01:06:40;;;;;;;38.17;27.13;;;;;;;4.08;100.00;103415.16;5321004;28;42012;-83
2022/01/24 01:20:41;;;;;;;36.53;26.75;;;;;;;4.06;100.00;103414.34;5324371;28;20028;-83
2022/01/24 01:23:12;;;;;;;39.15;27.63;;;;;;;4.05;100.00;103419.66;5324609;28;20373;-83
2022/01/24 01:25:45;;;;;;;39.42;26.25;;;;;;;4.05;100.00;103420.53;5325974;27;20100;-84
2022/01/24 01:28:17;;;;;;;41.42;27.40;;;;;;;4.14;100.00;103408.88;5324995;27;20164;-83
2022/01/24 01:30:52;;;;;;;37.78;27.38;;;;;;;4.09;100.00;103416.06;5325835;27;20052;-83
2022/01/24 01:36:56;;;;;;;41.40;26.95;;;;;;;4.09;100.00;103410.78;5297856;28;20508;-83
2022/01/24 01:39:51;;;;;;;35.38;25.58;;;;;;;4.07;100.00;103410.81;5324429;28;20108;-83
2022/01/24 01:54:00;;;;;;;37.75;26.13;;;;;;;4.03;100.00;103417.06;5325122;28;20035;-82
2022/01/24 01:56:32;;;;;;;37.50;25.42;;;;;;;4.07;100.00;103420.50;5322653;27;20039;-83
2022/01/24 01:59:03;;;;;;;34.72;24.40;;;;;;;4.04;100.00;103413.50;5323507;28;20020;-83
2022/01/24 02:01:34;;;;;;;35.60;25.10;;;;;;;4.07;100.00;103402.03;5318670;27;20541;-83
2022/01/24 02:04:06;;;;;;;30.83;21.90;;;;;;;4.14;100.00;103414.19;5322889;27;20032;-83
2022/01/24 02:06:38;;;;;;;33.47;24.08;;;;;;;4.11;100.00;103412.47;5323211;28;20317;-83
2022/01/24 02:09:11;;;;;;;35.72;24.60;;;;;;;4.15;100.00;103414.13;5324348;28;20031;-83
2022/01/24 02:11:42;;;;;;;37.53;24.13;;;;;;;4.14;100.00;103407.09;5325434;27;20028;-83
2022/01/24 02:14:17;;;;;;;38.17;25.17;;;;;;;4.06;100.00;103409.06;5324722;28;20479;-83
2022/01/24 02:16:55;;;;;;;37.25;25.60;;;;;;;4.07;100.00;103410.81;5323136;27;20473;-83
2022/01/24 02:22:39;;;;;;;38.55;25.90;;;;;;;4.06;100.00;103405.56;5323534;27;21579;-83
2022/01/24 02:25:06;;;;;;;35.47;25.02;;;;;;;4.30;100.00;103404.09;5324085;27;20034;-83
2022/01/24 02:27:45;;;;;;;37.00;24.70;;;;;;;4.05;100.00;103401.16;5324787;27;20016;-83
2022/01/24 02:30:39;;;;;;;33.92;24.80;;;;;;;4.05;100.00;103404.69;5320413;28;20404;-83
2022/01/24 02:33:09;;;;;;;34.42;24.08;;;;;;;4.03;100.00;103400.34;5323024;28;20485;-83
2022/01/24 02:35:41;;;;;;;34.38;24.63;;;;;;;3.84;100.00;103371.75;5323686;28;20032;-83
2022/01/24 02:49:35;;;;;;;36.92;25.05;;;;;;;3.96;100.00;103392.59;5321711;27;20042;-82
2022/01/24 02:52:09;;;;;;;33.22;23.83;;;;;;;3.93;100.00;103387.38;5323678;27;20030;-83
2022/01/24 02:54:41;;;;;;;38.08;25.33;;;;;;;3.91;100.00;103383.91;5322649;28;20586;-83
2022/01/24 02:57:13;;;;;;;34.53;24.48;;;;;;;3.95;100.00;103389.97;5322605;27;20423;-83
2022/01/24 02:59:44;;;;;;;36.88;25.90;;;;;;;3.91;100.00;103386.53;5323407;27;20039;-83
2022/01/24 03:02:15;;;;;;;37.30;25.35;;;;;;;3.93;100.00;103395.28;5322377;27;20114;-82
2022/01/24 03:04:46;;;;;;;36.88;25.80;;;;;;;3.97;100.00;103388.16;5322471;27;20047;-83
2022/01/24 03:07:18;;;;;;;34.95;24.75;;;;;;;3.95;100.00;103376.78;5324258;27;20031;-83
2022/01/24 03:09:51;;;;;;;33.58;24.25;;;;;;;4.00;100.00;103374.88;5324836;27;20127;-82
2022/01/24 03:12:41;;;;;;;36.63;25.65;;;;;;;3.97;100.00;103369.69;5318626;28;20116;-83
2022/01/24 03:15:12;;;;;;;32.90;23.20;;;;;;;4.01;100.00;103371.31;5322246;27;20055;-83
2022/01/24 03:17:43;;;;;;;31.90;22.92;;;;;;;4.00;100.00;103385.44;5324549;27;20052;-83
2022/01/24 03:20:15;;;;;;;30.92;23.63;;;;;;;3.97;100.00;103367.03;5322257;27;20032;-83
2022/01/24 03:22:46;;;;;;;32.08;24.23;;;;;;;3.96;100.00;103367.94;5324512;27;20032;-83
2022/01/24 03:25:17;;;;;;;36.05;25.13;;;;;;;3.89;100.00;103355.78;5324058;27;20031;-84
2022/01/24 03:27:48;;;;;;;34.33;25.60;;;;;;;3.91;100.00;103360.13;5324646;27;20028;-83
2022/01/24 03:30:20;;;;;;;33.95;25.10;;;;;;;3.93;100.00;103362.75;5324148;27;20036;-83
2022/01/24 03:32:51;;;;;;;34.63;24.77;;;;;;;3.91;100.00;103361.88;5324630;27;20434;-83
2022/01/24 03:35:23;;;;;;;33.00;24.15;;;;;;;4.02;100.00;103362.50;5323672;27;20050;-83
2022/01/24 03:37:54;;;;;;;37.90;26.52;;;;;;;3.93;100.00;103368.03;5323972;27;20107;-83
2022/01/24 03:40:26;;;;;;;37.22;26.98;;;;;;;3.88;100.00;103365.47;5319365;28;20028;-83
2022/01/24 03:42:57;;;;;;;35.28;24.73;;;;;;;3.95;100.00;103364.44;5323504;27;20558;-83
2022/01/24 03:48:24;;;;;;;38.83;26.75;;;;;;;3.90;100.00;103371.59;5323497;27;20040;-83
2022/01/24 03:50:56;;;;;;;35.00;26.20;;;;;;;3.92;100.00;103372.41;5322676;27;20478;-83
2022/01/24 03:53:27;;;;;;;38.50;25.67;;;;;;;3.91;100.00;103373.34;5322071;27;20411;-83
2022/01/24 03:55:58;;;;;;;36.60;26.85;;;;;;;3.85;100.00;103372.63;5323975;27;20110;-83
2022/01/24 03:58:31;;;;;;;38.45;27.27;;;;;;;3.83;100.00;103369.16;5323371;27;20059;-83
2022/01/24 04:01:05;;;;;;;38.92;27.35;;;;;;;3.86;100.00;103374.38;5322663;27;20030;-83
2022/01/24 04:03:38;;;;;;;37.80;27.70;;;;;;;3.84;100.00;103371.75;5321943;28;20088;-83
2022/01/24 04:06:09;;;;;;;38.85;27.70;;;;;;;3.78;100.00;103370.09;5324155;27;20049;-83
2022/01/24 04:08:41;;;;;;;40.13;27.92;;;;;;;3.79;100.00;103368.34;5321875;27;20028;-83
2022/01/24 04:11:13;;;;;;;36.58;26.33;;;;;;;3.83;100.00;103367.38;5319824;28;20077;-83
2022/01/24 04:13:45;;;;;;;36.85;27.08;;;;;;;3.81;100.00;103370.97;5323973;27;20052;-84
2022/01/24 04:16:26;;;;;;;37.92;26.50;;;;;;;3.85;100.00;103369.97;5322830;27;20050;-83
2022/01/24 04:19:31;;;;;;;38.30;26.55;;;;;;;3.83;100.00;103370.00;5322131;28;20438;-83
2022/01/24 04:21:55;;;;;;;28.15;20.08;;;;;;;3.83;100.00;103364.72;5322169;28;20059;-83
2022/01/24 04:24:27;;;;;;;35.25;25.63;;;;;;;3.87;100.00;103369.00;5323940;27;20024;-83
2022/01/24 04:26:58;;;;;;;36.95;26.88;;;;;;;3.87;100.00;103368.16;5326337;27;20024;-83
2022/01/24 04:29:30;;;;;;;37.85;26.02;;;;;;;3.83;100.00;103358.59;5327646;27;20032;-83
2022/01/24 04:32:03;;;;;;;33.28;23.73;;;;;;;3.89;100.00;103356.66;5326812;28;20024;-84
2022/01/24 04:34:35;;;;;;;35.10;26.35;;;;;;;3.82;100.00;103362.97;5323174;28;20423;-83
2022/01/24 04:37:06;;;;;;;36.28;26.52;;;;;;;3.79;100.00;103357.78;5325118;28;20107;-83
2022/01/24 04:39:37;;;;;;;32.65;24.17;;;;;;;3.84;100.00;103363.84;5325692;28;20018;-83
2022/01/24 04:42:15;;;;;;;33.85;24.55;;;;;;;3.77;100.00;103370.16;5325547;28;20450;-83
2022/01/24 04:52:52;;;;;;;35.85;24.92;;;;;;;3.90;100.00;103373.38;5325594;28;20476;-83
2022/01/24 04:55:23;;;;;;;31.88;23.23;;;;;;;3.86;100.00;103369.09;5324230;28;20046;-83
2022/01/24 04:57:55;;;;;;;34.25;23.38;;;;;;;3.91;100.00;103373.34;5327083;27;20032;-83
2022/01/24 05:00:26;;;;;;;35.92;25.05;;;;;;;3.90;100.00;103371.59;5326056;27;20077;-83
2022/01/24 05:02:57;;;;;;;38.63;26.42;;;;;;;3.71;100.00;103359.75;5326530;27;20047;-83
2022/01/24 05:05:29;;;;;;;33.13;23.08;;;;;;;3.93;100.00;103379.44;5326271;27;20066;-83
2022/01/24 05:08:05;;;;;;;36.35;25.95;;;;;;;3.74;100.00;103376.38;5324420;27;20082;-83
2022/01/24 05:10:53;;;;;;;31.33;22.67;;;;;;;3.85;100.00;103383.19;5324746;27;20028;-83
2022/01/24 05:24:37;;;;;;;36.35;24.42;;;;;;;3.68;100.00;103378.28;5332697;28;20099;-83
2022/01/24 05:27:08;;;;;;;37.90;24.23;;;;;;;3.72;100.00;103375.53;5336957;27;20040;-83
2022/01/24 05:29:39;;;;;;;31.52;22.23;;;;;;;3.72;100.00;103361.50;5336878;28;20109;-84
2022/01/24 05:32:11;;;;;;;36.22;23.92;;;;;;;3.78;100.00;103372.75;5333098;27;20059;-83
2022/01/24 05:34:42;;;;;;;33.83;23.80;;;;;;;3.72;100.00;103353.56;5329084;27;20028;-83
2022/01/24 05:37:13;;;;;;;32.70;22.30;;;;;;;3.88;100.00;103367.25;5323509;27;20034;-83
2022/01/24 05:39:45;;;;;;;35.10;24.15;;;;;;;3.91;100.00;103361.88;5324549;27;20134;-83
2022/01/24 05:42:21;;;;;;;36.45;23.02;;;;;;;3.86;100.00;103364.66;5325393;27;20081;-83
2022/01/24 05:44:52;;;;;;;30.92;22.67;;;;;;;3.95;100.00;103366.22;5322450;27;20022;-82
2022/01/24 05:47:24;;;;;;;33.97;22.60;;;;;;;3.97;100.00;103346.75;5325025;27;20028;-83
2022/01/24 05:49:55;;;;;;;34.05;23.23;;;;;;;3.84;100.00;103368.22;5326204;27;20028;-83
2022/01/24 05:52:27;;;;;;;35.17;23.30;;;;;;;3.85;100.00;103375.25;5322104;28;20023;-83
2022/01/24 05:54:58;;;;;;;35.13;23.45;;;;;;;3.71;100.00;103363.25;5324973;27;20032;-83
2022/01/24 05:57:30;;;;;;;32.03;22.50;;;;;;;3.73;100.00;103368.47;5324145;27;20081;-83
2022/01/24 06:00:01;;;;;;;29.58;22.35;;;;;;;3.84;100.00;103365.59;5326439;27;20392;-83
2022/01/24 06:02:33;;;;;;;33.58;22.63;;;;;;;3.74;100.00;103368.44;5324000;27;20153;-83
2022/01/24 06:05:05;;;;;;;35.75;22.50;;;;;;;3.75;100.00;103371.94;5325633;28;20055;-83
2022/01/24 06:07:37;;;;;;;35.00;24.58;;;;;;;3.57;100.00;103363.56;5325747;27;20036;-83
2022/01/24 06:10:09;;;;;;;32.58;24.20;;;;;;;3.60;100.00;103370.56;5321337;27;20027;-83
2022/01/24 06:12:41;;;;;;;30.60;21.95;;;;;;;3.66;100.00;103375.66;5324630;27;20024;-83
2022/01/24 06:15:12;;;;;;;32.72;23.58;;;;;;;3.56;100.00;103366.25;5323087;27;20039;-82
2022/01/24 06:17:44;;;;;;;31.98;23.73;;;;;;;3.51;100.00;103374.28;5329699;27;20024;-82
2022/01/24 06:20:15;;;;;;;33.38;23.45;;;;;;;3.49;100.00;103368.16;5327886;27;20028;-82
2022/01/24 06:22:47;;;;;;;35.50;23.20;;;;;;;3.50;100.00;103366.38;5324586;27;20111;-83
2022/01/24 06:25:24;;;;;;;33.90;23.70;;;;;;;3.46;100.00;103362.09;5323668;27;20024;-83
2022/01/24 06:27:55;;;;;;;32.95;23.13;;;;;;;3.53;100.00;103371.59;5315262;27;20060;-83
2022/01/24 06:30:27;;;;;;;35.50;23.13;;;;;;;3.46;100.00;103376.13;5305493;28;20048;-83
2022/01/24 06:33:01;;;;;;;33.17;22.60;;;;;;;3.50;100.00;103375.16;5313433;28;20043;-83
2022/01/24 06:35:32;;;;;;;34.13;23.80;;;;;;;3.48;100.00;103378.75;5306258;28;20024;-83
2022/01/24 06:38:03;;;;;;;30.67;21.63;;;;;;;3.53;100.00;103379.50;5313374;28;20043;-83
2022/01/24 06:40:35;;;;;;;35.78;23.98;;;;;;;3.51;100.00;103379.53;5325912;27;20147;-83
2022/01/24 06:43:06;;;;;;;30.00;21.58;;;;;;;3.53;100.00;103374.25;5323145;28;20035;-83
2022/01/24 06:45:38;;;;;;;34.03;23.58;;;;;;;3.45;100.00;103373.53;5328957;27;20017;-83
2022/01/24 06:48:09;;;;;;;32.88;22.33;;;;;;;3.43;100.00;103364.78;5324389;27;20111;-83
2022/01/24 06:50:40;;;;;;;31.55;21.73;;;;;;;3.44;100.00;103380.59;5324049;27;20454;-83
2022/01/24 06:53:12;;;;;;;33.95;22.45;;;;;;;3.38;100.00;103384.25;5326565;27;20429;-84
2022/01/24 06:55:43;;;;;;;30.92;20.45;;;;;;;3.49;100.00;103383.09;5307914;27;20024;-82
2022/01/24 06:58:14;;;;;;;32.20;19.70;;;;;;;3.52;100.00;103378.63;5316087;28;20381;-83
2022/01/24 07:00:46;;;;;;;31.98;21.20;;;;;;;3.55;100.00;103390.91;5319230;27;20024;-83
2022/01/24 07:03:17;;;;;;;33.22;22.02;;;;;;;3.55;100.00;103389.13;5328368;27;20122;-83
2022/01/24 07:05:49;;;;;;;31.25;21.38;;;;;;;3.47;100.00;103383.16;5342827;27;20040;-83
2022/01/24 07:08:20;;;;;;;32.00;21.88;;;;;;;3.44;100.00;103391.16;5327624;27;20522;-84
2022/01/24 07:10:52;;;;;;;31.30;20.75;;;;;;;3.44;100.00;103390.25;5327657;27;20063;-83
2022/01/24 07:13:24;;;;;;;33.88;22.27;;;;;;;3.40;100.00;103397.38;5326434;27;20046;-84
2022/01/24 07:16:01;;;;;;;31.65;21.33;;;;;;;3.43;100.00;103393.81;5326924;27;20028;-83
2022/01/24 07:21:06;;;;;;;32.70;20.35;;;;;;;3.47;100.00;103398.09;5327837;27;20047;-84
2022/01/24 07:23:37;;;;;;;34.80;22.10;;;;;;;3.31;100.00;103398.44;5327839;27;20433;-84
2022/01/24 07:26:09;;;;;;;29.95;20.58;;;;;;;3.43;100.00;103396.44;5326858;28;20080;-83
2022/01/24 07:28:40;;;;;;;32.58;20.98;;;;;;;3.37;100.00;103403.59;5328106;27;20028;-84
2022/01/24 07:31:12;;;;;;;31.60;21.52;;;;;;;3.37;100.00;103400.09;5328525;27;20472;-84
2022/01/24 07:33:43;;;;;;;30.75;20.85;;;;;;;3.34;100.00;103403.66;5325753;28;20477;-83
2022/01/24 07:36:14;;;;;;;32.72;21.83;;;;;;;3.30;100.00;103396.72;5327473;27;20122;-84
2022/01/24 07:38:46;;;;;;;29.92;20.63;;;;;;;3.32;100.00;103400.19;5319830;28;20082;-84
2022/01/24 07:41:24;;;;;;;33.78;21.70;;;;;;;3.28;100.00;103411.72;5305750;28;20025;-84
2022/01/24 07:43:56;;;;;;;32.92;22.83;;;;;;;3.14;100.00;103382.13;5302986;28;20142;-84
2022/01/24 07:46:28;;;;;;;29.63;20.92;;;;;;;3.17;100.00;103387.31;5304306;28;20358;-83
2022/01/24 07:49:02;;;;;;;33.88;21.63;;;;;;;3.23;100.00;103400.38;5302606;28;20028;-84
2022/01/24 07:51:35;;;;;;;29.73;19.92;;;;;;;3.29;100.00;103402.03;5304090;28;20056;-84
2022/01/24 07:54:08;;;;;;;30.80;20.10;;;;;;;3.27;100.00;103403.81;5319323;28;20034;-84
2022/01/24 07:56:40;;;;;;;29.05;20.33;;;;;;;3.33;100.00;103404.56;5325686;28;20024;-83
2022/01/24 07:59:11;;;;;;;32.90;22.25;;;;;;;3.29;100.00;103416.06;5324739;27;20020;-83
2022/01/24 08:01:42;;;;;;;30.17;20.52;;;;;;;3.41;100.00;103423.72;5322412;27;20040;-84
2022/01/24 08:04:14;;;;;;;35.00;22.98;;;;;;;3.36;100.00;103424.72;5303973;28;20037;-84
2022/01/24 08:06:47;;;;;;;33.78;22.30;;;;;;;3.29;100.00;103409.94;5304075;28;20032;-83
2022/01/24 08:09:18;;;;;;;30.70;20.95;;;;;;;3.37;100.00;103424.69;5304472;28;20023;-84
2022/01/24 08:11:50;;;;;;;31.73;20.75;;;;;;;3.45;100.00;103427.16;5308576;28;20469;-84
2022/01/24 08:14:21;;;;;;;31.48;21.50;;;;;;;3.44;100.00;103429.84;5325524;27;20419;-84
2022/01/24 08:16:53;;;;;;;35.28;23.55;;;;;;;3.37;100.00;103435.25;5324861;28;20027;-84
2022/01/24 08:19:24;;;;;;;34.10;23.08;;;;;;;3.38;100.00;103421.19;5325625;27;20103;-84
2022/01/24 08:21:56;;;;;;;33.03;23.52;;;;;;;3.33;100.00;103427.44;5324791;28;20028;-83
2022/01/24 08:24:28;;;;;;;34.08;23.25;;;;;;;3.34;100.00;103439.72;5325210;27;20603;-84
2022/01/24 08:26:59;;;;;;;37.45;26.63;;;;;;;3.19;100.00;103407.50;5340749;27;20027;-84
2022/01/24 08:29:31;;;;;;;38.95;27.13;;;;;;;3.37;100.00;103418.56;5325245;27;20031;-84
2022/01/24 08:32:03;;;;;;;34.90;25.27;;;;;;;3.40;100.00;103434.31;5324952;27;20107;-84
2022/01/24 08:34:34;;;;;;;35.83;24.55;;;;;;;3.36;100.00;103428.22;5323434;28;20039;-84
2022/01/24 08:37:05;;;;;;;38.67;24.15;;;;;;;3.41;100.00;103425.50;5324865;27;20013;-84
2022/01/24 08:39:37;;;;;;;31.27;21.63;;;;;;;3.59;100.00;103433.03;5323500;28;20414;-84
2022/01/24 08:42:26;;;;;;;36.60;25.10;;;;;;;3.47;100.00;103428.03;5319191;28;20381;-84
2022/01/24 08:47:32;;;;;;;40.50;26.90;;;;;;;3.49;100.00;103431.50;5304663;28;20416;-84
2022/01/24 08:50:06;;;;;;;40.55;28.45;;;;;;;3.40;100.00;103432.56;5324930;27;20024;-84
2022/01/24 08:52:37;;;;;;;39.75;26.70;;;;;;;3.40;100.00;103426.38;5327887;27;20032;-84
2022/01/24 08:55:08;;;;;;;36.92;24.15;;;;;;;3.47;100.00;103440.34;5323247;28;20460;-83
2022/01/24 08:57:40;;;;;;;37.63;26.42;;;;;;;3.49;100.00;103435.88;5326102;27;20024;-84
2022/01/24 09:00:12;;;;;;;37.50;25.70;;;;;;;3.47;100.00;103438.59;5315696;27;20507;-83
2022/01/24 09:02:44;;;;;;;38.95;26.23;;;;;;;3.49;100.00;103442.06;5315342;28;20040;-82
2022/01/24 09:05:17;;;;;;;37.10;25.60;;;;;;;3.52;100.00;103443.75;5322931;28;20051;-83
2022/01/24 09:07:49;;;;;;;35.00;24.05;;;;;;;3.54;100.00;103434.00;5324436;27;20055;-83
2022/01/24 09:10:24;;;;;;;36.75;25.55;;;;;;;3.52;100.00;103433.19;5324890;27;20375;-82
2022/01/24 09:12:55;;;;;;;35.97;24.35;;;;;;;3.59;100.00;103432.16;5326770;27;20097;-83
2022/01/24 09:15:27;;;;;;;38.38;25.65;;;;;;;3.59;100.00;103429.50;5328118;27;20024;-83
2022/01/24 09:17:59;;;;;;;37.28;25.73;;;;;;;3.60;100.00;103425.97;5327355;27;20051;-83
2022/01/24 09:20:31;;;;;;;36.58;25.35;;;;;;;3.63;100.00;103454.06;5327734;27;20024;-83
2022/01/24 09:23:02;;;;;;;32.63;23.58;;;;;;;3.55;100.00;103444.53;5327305;27;20068;-83
2022/01/24 09:25:35;;;;;;;35.90;24.00;;;;;;;3.51;100.00;103448.16;5327684;27;20348;-83
2022/01/24 09:28:06;;;;;;;31.33;22.42;;;;;;;3.42;100.00;103445.72;5327590;27;20027;-83
2022/01/24 09:30:37;;;;;;;31.42;21.58;;;;;;;3.41;100.00;103436.91;5328358;28;20456;-83
2022/01/24 09:33:12;;;;;;;33.38;23.20;;;;;;;3.52;100.00;103441.09;5327629;27;20024;-83
2022/01/24 09:35:44;;;;;;;40.20;25.38;;;;;;;3.59;100.00;103435.69;5328146;28;20040;-83
2022/01/24 09:38:16;;;;;;;27.48;18.65;;;;;;;3.88;100.00;103428.84;5324175;28;20103;-83
2022/01/24 09:40:48;;;;;;;36.55;25.23;;;;;;;3.73;100.00;103440.63;5308632;28;20062;-83
2022/01/24 09:43:19;;;;;;;33.90;23.30;;;;;;;3.76;100.00;103432.63;5327443;27;20066;-83
2022/01/24 09:45:50;;;;;;;32.17;22.63;;;;;;;3.83;100.00;103432.50;5327398;28;20051;-82
2022/01/24 09:48:22;;;;;;;30.23;21.02;;;;;;;3.85;100.00;103435.97;5327232;28;20028;-83
2022/01/24 09:50:54;;;;;;;30.02;20.08;;;;;;;3.90;100.00;103439.38;5327234;27;20020;-83
2022/01/24 09:53:26;;;;;;;27.02;18.20;;;;;;;4.01;100.00;103436.50;5326971;27;20082;-83
2022/01/24 09:56:02;;;;;;;28.08;19.90;;;;;;;3.95;100.00;103441.00;5326414;28;20012;-83
2022/01/24 09:58:35;;;;;;;34.97;21.38;;;;;;;3.96;100.00;103429.56;5325836;28;20031;-83
2022/01/24 10:01:08;;;;;;;33.33;22.67;;;;;;;4.07;100.00;103437.22;5327346;27;20024;-83
2022/01/24 10:03:59;;;;;;;31.73;21.70;;;;;;;4.13;100.00;103437.06;5327206;27;20032;-83
2022/01/24 10:06:57;;;;;;;31.05;20.35;;;;;;;4.35;100.00;103436.56;5325993;27;20131;-83
2022/01/24 10:09:42;;;;;;;32.53;20.63;;;;;;;4.42;100.00;103435.47;5327232;27;20028;-83
2022/01/24 10:18:09;;;;;;;31.33;19.63;;;;;;;4.34;100.00;103433.03;5326888;28;20402;-83
2022/01/24 10:20:41;;;;;;;28.02;19.88;;;;;;;4.40;100.00;103420.56;5326810;27;20016;-83
2022/01/24 10:23:16;;;;;;;28.58;20.00;;;;;;;4.39;100.00;103432.06;5326410;27;20468;-83
2022/01/24 10:26:00;;;;;;;29.48;20.42;;;;;;;4.43;100.00;103434.56;5326566;27;20526;-83
2022/01/24 10:28:43;;;;;;;26.42;18.23;;;;;;;4.50;100.00;103425.56;5319009;27;20114;-82
2022/01/24 10:31:24;;;;;;;34.05;21.55;;;;;;;4.51;100.00;103426.44;5305061;28;20040;-82
2022/01/24 10:34:09;;;;;;;30.75;20.95;;;;;;;4.67;100.00;103426.91;5305226;28;20369;-82
2022/01/24 10:36:52;;;;;;;29.23;20.17;;;;;;;4.73;100.00;103435.56;5305135;28;20028;-82
2022/01/24 10:39:56;;;;;;;25.85;18.02;;;;;;;4.87;100.00;103431.66;5325290;28;20518;-82
2022/01/24 10:45:21;;;;;;;27.08;19.05;;;;;;;5.17;100.00;103422.00;5325922;27;20032;-82
2022/01/24 10:47:55;;;;;;;24.58;17.30;;;;;;;5.17;100.00;103416.72;5326161;28;20477;-83
2022/01/24 10:50:29;;;;;;;27.55;18.42;;;;;;;5.19;100.00;103416.66;5326875;27;20028;-83
2022/01/24 10:53:10;;;;;;;30.42;20.10;;;;;;;5.21;100.00;103407.78;5325887;27;20027;-83
2022/01/24 10:55:44;;;;;;;27.02;18.90;;;;;;;5.30;100.00;103415.44;5326659;27;20024;-83
2022/01/24 10:58:18;;;;;;;29.75;20.55;;;;;;;5.29;100.00;103412.81;5326650;27;20070;-83
2022/01/24 11:00:50;;;;;;;25.60;17.95;;;;;;;5.29;100.00;103403.13;5317079;27;20108;-83
2022/01/24 11:03:21;;;;;;;27.30;19.33;;;;;;;5.30;100.00;103410.13;5309836;27;20476;-83
2022/01/24 11:05:53;;;;;;;26.75;18.88;;;;;;;5.19;100.00;103404.31;5304731;28;20053;-83
2022/01/24 11:08:27;;;;;;;28.27;19.00;;;;;;;4.97;100.00;103403.19;5304275;28;20021;-83
2022/01/24 11:10:58;;;;;;;26.23;18.45;;;;;;;4.74;100.00;103394.09;5305054;28;20384;-83
2022/01/24 11:13:31;;;;;;;27.52;19.15;;;;;;;4.86;100.00;103411.44;5304717;28;20024;-83
2022/01/24 11:16:03;;;;;;;26.33;18.30;;;;;;;4.78;100.00;103405.47;5314862;28;20024;-83
2022/01/24 11:18:35;;;;;;;28.15;18.75;;;;;;;4.86;100.00;103400.84;5324159;28;20349;-83
2022/01/24 11:21:13;;;;;;;28.83;18.83;;;;;;;4.71;100.00;103407.41;5326009;27;20023;-83
2022/01/24 11:23:45;;;;;;;29.20;20.00;;;;;;;4.83;100.00;103406.22;5304786;27;20504;-83
2022/01/24 11:26:20;;;;;;;24.80;18.30;;;;;;;4.79;100.00;103394.84;5316187;28;20074;-83
2022/01/24 11:28:51;;;;;;;25.60;18.42;;;;;;;4.92;100.00;103406.81;5306614;28;20481;-83
2022/01/24 11:31:34;;;;;;;26.23;18.08;;;;;;;5.00;100.00;103403.09;5303672;28;20062;-83
2022/01/24 11:34:15;;;;;;;24.42;17.63;;;;;;;5.06;100.00;103392.34;5303406;28;20094;-83
2022/01/24 11:36:46;;;;;;;25.52;18.38;;;;;;;5.07;100.00;103397.59;5319936;28;20028;-83
2022/01/24 11:39:22;;;;;;;25.92;18.10;;;;;;;5.25;100.00;103400.59;5325618;27;20035;-83
2022/01/24 11:41:53;;;;;;;26.65;19.42;;;;;;;5.11;100.00;103398.34;5325655;27;20067;-83
2022/01/24 11:44:43;;;;;;;27.67;19.83;;;;;;;5.01;100.00;103399.53;5326001;27;20173;-83
2022/01/24 11:47:26;;;;;;;26.95;18.95;;;;;;;5.05;100.00;103394.13;5324635;27;20020;-83
2022/01/24 11:49:58;;;;;;;27.48;19.77;;;;;;;4.99;100.00;103396.94;5325283;27;20047;-83
2022/01/24 11:52:34;;;;;;;25.58;18.13;;;;;;;5.09;100.00;103397.53;5325292;27;20107;-83
2022/01/24 11:57:49;;;;;;;25.30;18.73;;;;;;;5.11;100.00;103390.44;5324726;27;20031;-83
2022/01/24 12:00:30;;;;;;;29.98;20.83;;;;;;;5.36;100.00;103384.41;5326872;27;20103;-83
2022/01/24 12:03:17;;;;;;;27.15;18.52;;;;;;;5.44;100.00;103377.09;5328258;27;20465;-83
2022/01/24 12:05:53;;;;;;;24.93;19.17;;;;;;;5.67;100.00;103384.31;5336721;28;20516;-83
2022/01/24 12:08:42;;;;;;;29.70;21.35;;;;;;;5.88;100.00;103367.75;5335407;28;20119;-83
2022/01/24 12:11:21;;;;;;;29.30;20.00;;;;;;;5.96;100.00;103350.75;5336835;27;20063;-83
2022/01/24 12:14:01;;;;;;;26.45;19.25;;;;;;;5.95;100.00;103357.81;5337842;27;20012;-83
2022/01/24 12:16:36;;;;;;;26.90;18.95;;;;;;;5.94;100.00;103358.72;5337332;27;20020;-83
2022/01/24 12:19:10;;;;;;;25.60;19.15;;;;;;;6.08;100.00;103373.34;5337644;27;20024;-83
2022/01/24 12:21:42;;;;;;;22.48;17.30;;;;;;;5.99;100.00;103359.47;5328721;27;20130;-83
2022/01/24 12:24:14;;;;;;;24.80;19.05;;;;;;;5.94;100.00;103356.06;5326389;28;20042;-82
2022/01/24 12:26:48;;;;;;;27.35;19.60;;;;;;;6.16;100.00;103360.69;5326906;27;20578;-83
2022/01/24 12:29:22;;;;;;;27.55;19.85;;;;;;;6.15;100.00;103357.16;5324717;27;20493;-83
2022/01/24 12:32:01;;;;;;;26.58;19.90;;;;;;;6.20;100.00;103347.28;5324534;27;20054;-83
2022/01/24 12:34:39;;;;;;;27.65;19.05;;;;;;;6.34;100.00;103354.75;5323177;28;20016;-83
2022/01/24 12:37:21;;;;;;;28.05;20.80;;;;;;;6.72;100.00;103363.13;5323912;27;20020;-83
2022/01/24 12:40:06;;;;;;;28.10;18.23;;;;;;;6.97;100.00;103359.59;5324701;27;20020;-83
2022/01/24 12:42:50;;;;;;;30.63;21.38;;;;;;;7.10;100.00;103355.56;5324556;27;20456;-83
2022/01/24 12:48:16;;;;;;;26.13;18.92;;;;;;;7.23;100.00;103334.69;5328019;28;20115;-83
2022/01/24 12:50:51;;;;;;;29.08;20.88;;;;;;;7.28;100.00;103348.66;5328440;27;20021;-83
2022/01/24 12:53:22;;;;;;;29.98;20.23;;;;;;;7.24;100.00;103341.75;5326226;27;20051;-83
2022/01/24 12:56:03;;;;;;;30.77;21.65;;;;;;;7.36;100.00;103340.38;5328471;27;20436;-83
2022/01/24 12:58:38;;;;;;;28.42;20.42;;;;;;;7.37;100.00;103336.81;5326242;28;20145;-83
2022/01/24 13:01:24;;;;;;;27.83;20.08;;;;;;;7.70;100.00;103345.22;5327418;27;20027;-83
2022/01/24 13:04:02;;;;;;;28.13;20.77;;;;;;;7.90;100.00;103325.78;5306336;28;20867;-83
2022/01/24 13:06:35;;;;;;;30.98;21.95;;;;;;;8.24;100.00;103331.47;5306054;28;20035;-83
2022/01/24 13:09:15;;;;;;;29.55;20.65;;;;;;;9.94;100.00;103314.66;5306447;28;20032;-83
2022/01/24 13:11:54;;;;;;;28.98;20.10;;;;;;;10.69;100.00;103307.19;5313448;28;20407;-83
2022/01/24 13:14:44;;;;;;;30.30;20.17;;;;;;;10.83;100.00;103322.47;5327293;27;20017;-83